createdAt,value
2022-10-11T00:01:58.801Z,16.60
2022-10-11T00:04:26.045Z,19.17
2022-10-11T00:06:53.363Z,15.95
2022-10-11T00:09:20.940Z,15.80
2022-10-11T00:11:48.249Z,14.70
2022-10-11T00:14:15.616Z,19.50
2022-10-11T00:16:43.072Z,15.18
2022-10-11T00:19:11.095Z,18.13
2022-10-11T00:21:50.317Z,16.15
2022-10-11T00:24:17.877Z,16.23
2022-10-11T00:26:47.288Z,16.05
2022-10-11T00:29:14.603Z,16.55
2022-10-11T00:31:42.071Z,17.20
2022-10-11T00:34:09.731Z,16.92
2022-10-11T00:36:37.065Z,18.05
2022-10-11T00:39:04.579Z,15.52
2022-10-11T00:41:31.881Z,20.15
2022-10-11T00:44:17.632Z,18.85
2022-10-11T00:46:51.787Z,20.10
2022-10-11T00:49:22.317Z,18.65
2022-10-11T00:51:49.774Z,22.52
2022-10-11T00:54:18.380Z,22.95
2022-10-11T00:56:48.372Z,22.90
2022-10-11T00:59:21.498Z,20.85
2022-10-11T01:01:48.986Z,21.33
2022-10-11T01:04:16.630Z,21.73
2022-10-11T01:06:44.047Z,21.38
2022-10-11T01:09:12.259Z,17.30
2022-10-11T01:11:40.839Z,24.05
2022-10-11T01:14:08.080Z,20.38
2022-10-11T01:16:47.421Z,18.20
2022-10-11T01:19:26.808Z,15.82
2022-10-11T01:22:12.113Z,19.58
2022-10-11T01:24:39.661Z,19.88
2022-10-11T01:27:09.692Z,16.00
2022-10-11T01:29:40.021Z,17.48
2022-10-11T01:32:07.471Z,17.40
2022-10-11T01:34:46.708Z,18.23
2022-10-11T01:37:22.371Z,15.77
2022-10-11T01:39:57.501Z,18.27
2022-10-11T01:42:25.438Z,22.08
2022-10-11T01:44:55.266Z,18.27
2022-10-11T01:47:26.949Z,15.25
2022-10-11T01:49:56.079Z,17.98
2022-10-11T01:52:23.999Z,19.25
2022-10-11T01:55:13.985Z,21.00
2022-10-11T01:57:46.673Z,19.73
2022-10-11T02:00:15.880Z,15.20
2022-10-11T02:03:01.915Z,16.98
2022-10-11T02:05:33.206Z,20.05
2022-10-11T02:08:06.727Z,21.03
2022-10-11T02:10:44.031Z,15.63
2022-10-11T02:13:16.391Z,14.70
2022-10-11T02:18:15.436Z,22.52
2022-10-11T02:20:44.132Z,18.35
2022-10-11T02:23:16.942Z,19.17
2022-10-11T02:25:45.136Z,17.23
2022-10-11T02:28:15.345Z,15.40
2022-10-11T02:30:44.231Z,18.63
2022-10-11T02:33:13.174Z,15.52
2022-10-11T02:35:42.730Z,14.07
2022-10-11T02:38:19.480Z,12.43
2022-10-11T02:40:48.521Z,14.05
2022-10-11T02:43:37.528Z,16.05
2022-10-11T02:46:06.778Z,14.18
2022-10-11T02:48:34.614Z,12.13
2022-10-11T02:51:02.497Z,27.85
2022-10-11T02:53:29.949Z,14.75
2022-10-11T02:55:57.304Z,16.15
2022-10-11T02:58:25.074Z,14.45
2022-10-11T03:00:52.506Z,10.05
2022-10-11T03:03:20.694Z,15.00
2022-10-11T03:05:48.079Z,10.75
2022-10-11T03:08:16.595Z,10.27
2022-10-11T03:10:43.835Z,14.57
2022-10-11T03:13:14.834Z,11.63
2022-10-11T03:15:47.953Z,11.23
2022-10-11T03:18:15.900Z,8.98
2022-10-11T03:20:43.315Z,13.45
2022-10-11T03:23:11.400Z,14.02
2022-10-11T03:25:38.983Z,11.70
2022-10-11T03:28:06.646Z,11.95
2022-10-11T03:30:34.230Z,15.13
2022-10-11T03:33:01.580Z,13.63
2022-10-11T03:35:28.947Z,10.85
2022-10-11T03:37:56.440Z,10.48
2022-10-11T03:40:23.732Z,10.27
2022-10-11T03:42:50.935Z,11.88
2022-10-11T03:45:18.462Z,12.82
2022-10-11T03:47:45.743Z,16.35
2022-10-11T03:50:13.066Z,10.77
2022-10-11T03:52:40.510Z,11.77
2022-10-11T03:55:07.977Z,10.60
2022-10-11T03:57:35.239Z,12.05
2022-10-11T04:00:02.688Z,13.75
2022-10-11T04:02:30.027Z,13.43
2022-10-11T04:04:57.494Z,12.55
2022-10-11T04:07:24.957Z,11.63
2022-10-11T04:09:52.242Z,13.95
2022-10-11T04:12:19.809Z,11.27
2022-10-11T04:14:47.262Z,17.02
2022-10-11T04:17:14.534Z,10.48
2022-10-11T04:19:41.819Z,9.68
2022-10-11T04:22:09.497Z,10.80
2022-10-11T04:24:36.833Z,12.00
2022-10-11T04:27:04.165Z,14.43
2022-10-11T04:29:32.914Z,11.68
2022-10-11T04:32:00.340Z,13.73
2022-10-11T04:34:27.583Z,12.13
2022-10-11T04:36:55.051Z,16.27
2022-10-11T04:39:22.410Z,11.25
2022-10-11T04:41:49.697Z,10.73
2022-10-11T04:44:17.123Z,10.48
2022-10-11T04:46:44.391Z,11.02
2022-10-11T04:49:11.717Z,15.63
2022-10-11T04:51:39.257Z,14.68
2022-10-11T04:54:06.584Z,13.77
2022-10-11T04:56:33.774Z,14.38
2022-10-11T04:59:01.273Z,13.48
2022-10-11T05:01:28.793Z,17.05
2022-10-11T05:03:56.157Z,12.05
2022-10-11T05:06:23.593Z,13.63
2022-10-11T05:08:50.992Z,12.98
2022-10-11T05:11:18.254Z,13.07
2022-10-11T05:13:46.180Z,16.95
2022-10-11T05:16:14.265Z,12.80
2022-10-11T05:18:41.954Z,13.52
2022-10-11T05:21:17.513Z,14.95
2022-10-11T05:23:45.757Z,12.52
2022-10-11T05:26:13.592Z,10.93
2022-10-11T05:28:47.337Z,11.10
2022-10-11T05:31:15.121Z,12.75
2022-10-11T05:33:42.686Z,12.88
2022-10-11T05:36:10.622Z,12.73
2022-10-11T05:38:58.299Z,12.77
2022-10-11T05:41:25.846Z,19.63
2022-10-11T05:43:53.158Z,19.95
2022-10-11T05:46:20.519Z,15.27
2022-10-11T05:48:47.945Z,12.75
2022-10-11T05:51:15.224Z,12.75
2022-10-11T05:53:42.474Z,11.13
2022-10-11T05:56:20.423Z,14.65
2022-10-11T05:58:48.074Z,11.85
2022-10-11T06:01:16.816Z,13.30
2022-10-11T06:03:44.142Z,9.95
2022-10-11T06:06:12.144Z,13.00
2022-10-11T06:08:39.789Z,13.98
2022-10-11T06:11:26.339Z,12.23
2022-10-11T06:13:55.095Z,7.57
2022-10-11T06:16:22.413Z,13.18
2022-10-11T06:18:52.482Z,12.35
2022-10-11T06:21:20.217Z,10.95
2022-10-11T06:23:51.152Z,12.30
2022-10-11T06:26:18.571Z,11.98
2022-10-11T06:28:46.131Z,9.63
2022-10-11T06:31:14.028Z,7.57
2022-10-11T06:33:41.536Z,9.82
2022-10-11T06:36:12.727Z,11.40
2022-10-11T06:42:01.984Z,11.25
2022-10-11T06:44:29.529Z,11.38
2022-10-11T06:46:57.212Z,11.73
2022-10-11T06:49:24.549Z,14.38
2022-10-11T06:51:52.064Z,6.60
2022-10-11T06:54:19.370Z,9.20
2022-10-11T06:56:46.637Z,9.43
2022-10-11T06:59:14.182Z,6.30
2022-10-11T07:01:41.872Z,6.68
2022-10-11T07:04:09.300Z,10.88
2022-10-11T07:06:38.114Z,10.63
2022-10-11T07:09:05.896Z,7.03
2022-10-11T07:11:33.330Z,7.38
2022-10-11T07:14:05.021Z,11.35
2022-10-11T07:16:32.318Z,8.40
2022-10-11T07:19:01.337Z,6.20
2022-10-11T07:21:29.713Z,3.22
2022-10-11T07:23:57.160Z,4.40
2022-10-11T07:26:24.658Z,5.30
2022-10-11T07:28:52.254Z,6.30
2022-10-11T07:31:21.095Z,6.72
2022-10-11T07:33:49.047Z,7.35
2022-10-11T07:36:16.506Z,5.85
2022-10-11T07:38:44.948Z,5.93
2022-10-11T07:41:12.744Z,7.13
2022-10-11T07:43:40.234Z,4.63
2022-10-11T07:46:08.069Z,8.20
2022-10-11T07:48:36.398Z,7.28
2022-10-11T07:51:22.733Z,6.30
2022-10-11T07:57:21.281Z,6.47
2022-10-11T07:59:50.353Z,7.30
2022-10-11T08:02:17.798Z,8.93
2022-10-11T08:04:45.114Z,9.63
2022-10-11T08:07:12.608Z,4.95
2022-10-11T08:09:39.931Z,8.70
2022-10-11T08:12:07.219Z,5.55
2022-10-11T08:14:34.786Z,8.05
2022-10-11T08:17:02.073Z,5.68
2022-10-11T08:19:29.423Z,3.63
2022-10-11T08:21:57.289Z,5.63
2022-10-11T08:24:25.264Z,4.65
2022-10-11T08:26:53.230Z,4.00
2022-10-11T08:29:47.897Z,2.67
2022-10-11T08:32:15.286Z,4.47
2022-10-11T08:34:42.810Z,5.65
2022-10-11T08:37:10.180Z,7.55
2022-10-11T08:39:37.423Z,5.90
2022-10-11T08:42:13.831Z,5.57
2022-10-11T08:45:05.882Z,11.68
2022-10-11T08:47:40.882Z,6.20
2022-10-11T08:50:15.405Z,5.75
2022-10-11T08:52:46.710Z,4.32
2022-10-11T08:55:33.635Z,3.95
2022-10-11T08:58:01.163Z,5.43
2022-10-11T09:00:30.630Z,4.78
2022-10-11T09:03:09.718Z,3.22
2022-10-11T09:05:49.646Z,7.30
2022-10-11T09:08:20.059Z,7.03
2022-10-11T09:11:06.143Z,4.72
2022-10-11T09:13:39.323Z,3.63
2022-10-11T09:16:12.601Z,5.10
2022-10-11T09:18:42.914Z,4.38
2022-10-11T09:21:29.313Z,5.30
2022-10-11T09:24:15.198Z,3.67
2022-10-11T09:26:51.781Z,4.45
2022-10-11T09:29:27.562Z,4.80
2022-10-11T09:31:55.862Z,7.00
2022-10-11T09:34:25.295Z,2.70
2022-10-11T09:37:09.822Z,4.50
2022-10-11T09:39:39.266Z,6.05
2022-10-11T09:42:08.015Z,5.00
2022-10-11T09:44:38.515Z,3.97
2022-10-11T09:47:06.652Z,5.13
2022-10-11T09:49:46.498Z,4.75
2022-10-11T09:52:19.249Z,4.75
2022-10-11T09:54:51.431Z,3.70
2022-10-11T09:57:24.053Z,4.80
2022-10-11T09:59:58.349Z,6.28
2022-10-11T10:02:26.221Z,3.28
2022-10-11T10:04:53.595Z,5.13
2022-10-11T10:07:21.523Z,6.03
2022-10-11T10:09:49.046Z,4.22
2022-10-11T10:12:29.889Z,9.65
2022-10-11T10:15:07.798Z,5.38
2022-10-11T10:17:36.087Z,1.58
2022-10-11T10:23:36.423Z,4.13
2022-10-11T10:26:15.835Z,2.38
2022-10-11T10:29:01.018Z,1.95
2022-10-11T10:32:02.026Z,3.42
2022-10-11T10:34:33.148Z,2.72
2022-10-11T10:37:06.502Z,4.18
2022-10-11T10:39:46.585Z,1.95
2022-10-11T10:42:16.069Z,3.85
2022-10-11T10:44:43.736Z,6.38
2022-10-11T10:47:18.904Z,4.05
2022-10-11T10:49:55.122Z,5.07
2022-10-11T10:52:35.089Z,2.03
2022-10-11T10:55:15.989Z,3.60
2022-10-11T10:58:02.175Z,4.50
2022-10-11T11:00:34.120Z,5.80
2022-10-11T11:03:03.292Z,5.43
2022-10-11T11:05:47.756Z,4.57
2022-10-11T11:08:16.492Z,4.85
2022-10-11T11:11:02.366Z,4.40
2022-10-11T11:13:37.563Z,7.88
2022-10-11T11:16:05.023Z,4.40
2022-10-11T11:18:32.586Z,7.07
2022-10-11T11:21:18.429Z,3.38
2022-10-11T11:24:03.956Z,2.65
2022-10-11T11:26:54.276Z,2.42
2022-10-11T11:29:21.730Z,6.55
2022-10-11T11:32:07.070Z,5.93
2022-10-11T11:34:34.546Z,5.78
2022-10-11T11:37:04.295Z,3.13
2022-10-11T11:39:34.786Z,4.82
2022-10-11T11:42:11.886Z,7.93
2022-10-11T11:44:49.261Z,3.15
2022-10-11T11:47:26.860Z,6.85
2022-10-11T11:49:59.175Z,5.50
2022-10-11T11:52:30.596Z,3.53
2022-10-11T11:55:14.478Z,5.13
2022-10-11T11:57:51.985Z,4.47
2022-10-11T12:00:21.223Z,2.88
2022-10-11T12:02:54.508Z,6.50
2022-10-11T12:05:24.223Z,4.70
2022-10-11T12:08:02.088Z,3.15
2022-10-11T12:10:35.422Z,6.07
2022-10-11T12:13:08.300Z,11.52
2022-10-11T12:15:35.890Z,6.97
2022-10-11T12:18:05.485Z,2.95
2022-10-11T12:20:34.574Z,5.55
2022-10-11T12:23:03.564Z,7.03
2022-10-11T12:29:18.066Z,3.60
2022-10-11T12:31:47.459Z,3.20
2022-10-11T12:34:14.810Z,5.00
2022-10-11T12:36:45.405Z,4.32
2022-10-11T12:39:19.131Z,4.35
2022-10-11T12:41:47.055Z,2.00
2022-10-11T12:44:30.140Z,5.53
2022-10-11T12:46:57.388Z,2.45
2022-10-11T12:49:31.029Z,3.47
2022-10-11T12:51:58.445Z,5.53
2022-10-11T12:54:44.714Z,2.08
2022-10-11T12:57:30.484Z,6.45
2022-10-11T13:00:07.784Z,3.15
2022-10-11T13:02:40.454Z,3.22
2022-10-11T13:05:20.756Z,3.00
2022-10-11T13:07:48.635Z,3.33
2022-10-11T13:10:19.566Z,3.20
2022-10-11T13:12:47.845Z,3.72
2022-10-11T13:15:17.067Z,3.25
2022-10-11T13:17:44.329Z,2.47
2022-10-11T13:20:24.288Z,5.85
2022-10-11T13:22:52.812Z,1.83
2022-10-11T13:25:27.710Z,1.38
2022-10-11T13:27:56.105Z,2.58
2022-10-11T13:30:34.674Z,3.58
2022-10-11T13:33:18.840Z,2.20
2022-10-11T13:35:52.843Z,4.10
2022-10-11T13:38:22.223Z,3.80
2022-10-11T13:40:51.170Z,5.00
2022-10-11T13:43:23.935Z,5.90
2022-10-11T13:45:52.805Z,3.55
2022-10-11T13:48:20.241Z,2.40
2022-10-11T13:51:06.299Z,3.00
2022-10-11T13:53:34.163Z,1.88
2022-10-11T13:56:03.742Z,1.98
2022-10-11T13:58:45.699Z,5.95
2022-10-11T14:01:24.564Z,3.10
2022-10-11T14:04:11.085Z,5.78
2022-10-11T14:06:48.888Z,1.42
2022-10-11T14:09:21.414Z,6.32
2022-10-11T14:11:49.141Z,2.78
2022-10-11T14:14:30.565Z,6.68
2022-10-11T14:17:18.645Z,3.83
2022-10-11T14:19:47.203Z,6.43
2022-10-11T14:22:16.306Z,4.90
2022-10-11T14:24:46.953Z,1.75
2022-10-11T14:27:16.131Z,5.65
2022-10-11T14:29:48.147Z,3.50
2022-10-11T14:32:33.027Z,4.93
2022-10-11T14:35:00.862Z,3.10
2022-10-11T14:37:28.185Z,4.22
2022-10-11T14:39:55.674Z,5.28
2022-10-11T14:42:25.887Z,2.60
2022-10-11T14:44:53.445Z,2.05
2022-10-11T14:47:20.915Z,3.65
2022-10-11T14:49:51.147Z,5.38
2022-10-11T14:52:18.581Z,6.10
2022-10-11T14:54:51.177Z,4.97
2022-10-11T14:57:20.568Z,3.28
2022-10-11T14:59:47.900Z,8.20
2022-10-11T15:02:17.836Z,8.75
2022-10-11T15:04:45.594Z,4.35
2022-10-11T15:07:12.914Z,5.57
2022-10-11T15:09:42.475Z,6.32
2022-10-11T15:12:09.770Z,4.15
2022-10-11T15:14:37.133Z,3.15
2022-10-11T15:17:06.549Z,4.70
2022-10-11T15:19:36.532Z,2.85
2022-10-11T15:22:06.530Z,3.50
2022-10-11T15:24:35.942Z,3.20
2022-10-11T15:27:05.342Z,4.82
2022-10-11T15:29:32.783Z,8.45
2022-10-11T15:32:00.108Z,5.28
2022-10-11T15:34:27.367Z,3.67
2022-10-11T15:36:58.613Z,6.45
2022-10-11T15:39:30.862Z,5.18
2022-10-11T15:41:58.664Z,2.10
2022-10-11T15:44:33.338Z,2.50
2022-10-11T15:47:00.799Z,4.55
2022-10-11T15:49:28.184Z,4.55
2022-10-11T15:51:55.557Z,3.17
2022-10-11T15:54:23.304Z,2.80
2022-10-11T15:56:53.610Z,11.02
2022-10-11T15:59:21.030Z,5.00
2022-10-11T16:01:48.390Z,4.32
2022-10-11T16:04:15.713Z,8.85
2022-10-11T16:06:43.157Z,3.78
2022-10-11T16:09:10.390Z,5.80
2022-10-11T16:11:37.874Z,3.25
2022-10-11T16:14:07.853Z,4.60
2022-10-11T16:16:35.605Z,5.55
2022-10-11T16:19:02.881Z,6.90
2022-10-11T16:21:30.383Z,7.60
2022-10-11T16:27:52.317Z,7.47
2022-10-11T16:33:42.193Z,4.50
2022-10-11T16:36:14.988Z,4.22
2022-10-11T16:38:42.236Z,5.05
2022-10-11T16:41:09.685Z,13.27
2022-10-11T16:43:36.990Z,4.07
2022-10-11T16:46:04.781Z,8.90
2022-10-11T16:48:32.338Z,15.68
2022-10-11T16:51:07.075Z,15.48
2022-10-11T16:53:34.676Z,15.13
2022-10-11T16:56:08.859Z,21.75
2022-10-11T16:58:36.949Z,15.45
2022-10-11T17:04:35.694Z,14.27
2022-10-11T17:07:03.239Z,18.95
2022-10-11T17:13:02.259Z,63.75
2022-10-11T17:15:29.801Z,87.13
2022-10-11T17:17:57.159Z,90.00
2022-10-11T17:20:24.742Z,81.05
2022-10-11T17:22:52.172Z,65.03
2022-10-11T17:25:21.548Z,62.58
2022-10-11T17:28:15.196Z,44.80
2022-10-11T17:34:04.833Z,28.70
2022-10-11T17:36:33.056Z,31.38
2022-10-11T17:39:05.800Z,38.25
2022-10-11T17:41:33.822Z,41.47
2022-10-11T17:44:01.292Z,47.15
2022-10-11T17:46:28.989Z,51.75
2022-10-11T17:48:56.424Z,36.50
2022-10-11T17:54:55.047Z,25.13
2022-10-11T18:00:54.406Z,27.05
2022-10-11T18:03:21.950Z,26.98
2022-10-11T18:05:49.324Z,30.45
2022-10-11T18:08:16.589Z,29.17
2022-10-11T18:10:47.449Z,35.92
2022-10-11T18:13:15.472Z,38.85
2022-10-11T18:15:43.322Z,35.95
2022-10-11T18:18:10.613Z,78.35
2022-10-11T18:20:38.110Z,56.97
2022-10-11T18:23:05.702Z,39.33
2022-10-11T18:25:33.606Z,41.63
2022-10-11T18:28:02.804Z,38.45
2022-10-11T18:30:30.456Z,34.53
2022-10-11T18:32:57.823Z,48.55
2022-10-11T18:35:25.334Z,39.58
2022-10-11T18:37:52.589Z,39.72
2022-10-11T18:43:53.062Z,43.75
2022-10-11T18:46:21.373Z,51.45
2022-10-11T18:48:49.623Z,42.55
2022-10-11T18:51:21.306Z,41.13
2022-10-11T18:53:49.314Z,47.85
2022-10-11T18:56:17.376Z,39.67
2022-10-11T18:58:44.909Z,45.40
2022-10-11T19:01:16.458Z,43.35
2022-10-11T19:03:47.210Z,37.27
2022-10-11T19:06:17.035Z,36.08
2022-10-11T19:08:48.839Z,35.92
2022-10-11T19:11:17.326Z,37.72
2022-10-11T19:13:45.344Z,42.17
2022-10-11T19:16:13.801Z,37.42
2022-10-11T19:18:44.229Z,44.55
2022-10-11T19:21:13.306Z,39.22
2022-10-11T19:23:42.787Z,40.08
2022-10-11T19:26:14.879Z,43.05
2022-10-11T19:31:10.949Z,44.55
2022-10-11T19:33:38.769Z,51.75
2022-10-11T19:36:06.213Z,50.08
2022-10-11T19:38:34.518Z,57.92
2022-10-11T19:41:05.660Z,50.58
2022-10-11T19:43:33.207Z,39.10
2022-10-11T19:46:01.331Z,35.22
2022-10-11T19:48:28.645Z,34.97
2022-10-11T19:51:03.111Z,36.45
2022-10-11T19:53:30.849Z,37.50
2022-10-11T19:56:05.274Z,44.75
2022-10-11T20:02:04.349Z,40.75
2022-10-11T20:04:51.658Z,46.17
2022-10-11T20:07:19.152Z,55.50
2022-10-11T20:09:46.902Z,46.72
2022-10-11T20:12:23.799Z,51.85
2022-10-11T20:14:51.326Z,44.10
2022-10-11T20:17:18.605Z,58.60
2022-10-11T20:19:46.086Z,53.63
2022-10-11T20:22:13.457Z,48.92
2022-10-11T20:24:41.101Z,39.10
2022-10-11T20:27:08.464Z,48.03
2022-10-11T20:29:36.281Z,49.08
2022-10-11T20:32:03.600Z,49.25
2022-10-11T20:34:31.197Z,42.95
2022-10-11T20:36:58.794Z,46.78
2022-10-11T20:39:26.222Z,55.35
2022-10-11T20:41:53.676Z,73.78
2022-10-11T20:44:21.040Z,72.13
2022-10-11T20:46:48.395Z,62.78
2022-10-11T20:49:16.271Z,77.20
2022-10-11T20:51:43.608Z,75.18
2022-10-11T20:54:11.471Z,69.38
2022-10-11T20:56:39.280Z,57.53
2022-10-11T20:59:06.634Z,72.00
2022-10-11T21:01:35.514Z,64.80
2022-10-11T21:04:03.396Z,63.83
2022-10-11T21:06:32.046Z,58.47
2022-10-11T21:09:00.055Z,61.30
2022-10-11T21:11:31.469Z,57.75
2022-10-11T21:14:00.575Z,56.40
2022-10-11T21:16:34.076Z,56.13
2022-10-11T21:19:04.588Z,57.75
2022-10-11T21:21:32.041Z,54.65
2022-10-11T21:24:00.421Z,58.67
2022-10-11T21:26:28.687Z,64.22
2022-10-11T21:28:56.146Z,56.47
2022-10-11T21:31:23.551Z,74.07
2022-10-11T21:33:51.078Z,61.58
2022-10-11T21:36:19.683Z,55.90
2022-10-11T21:38:47.522Z,64.47
2022-10-11T21:41:19.234Z,64.25
2022-10-11T21:43:46.828Z,73.80
2022-10-11T21:46:16.863Z,62.10
2022-10-11T21:48:45.004Z,61.78
2022-10-11T21:51:18.359Z,65.10
2022-10-11T21:53:45.989Z,65.88
2022-10-11T21:56:13.322Z,62.78
2022-10-11T21:58:40.609Z,72.97
2022-10-11T22:01:08.431Z,73.82
2022-10-11T22:03:35.825Z,66.53
2022-10-11T22:06:03.532Z,67.50
2022-10-11T22:08:31.241Z,62.15
2022-10-11T22:11:00.045Z,65.90
2022-10-11T22:13:28.426Z,63.42
2022-10-11T22:15:55.901Z,67.88
2022-10-11T22:18:23.778Z,67.22
2022-10-11T22:20:51.607Z,59.80
2022-10-11T22:23:18.866Z,60.08
2022-10-11T22:25:46.289Z,58.35
2022-10-11T22:28:13.771Z,49.83
2022-10-11T22:30:41.061Z,61.05
2022-10-11T22:33:08.306Z,58.15
2022-10-11T22:35:37.523Z,61.50
2022-10-11T22:38:05.550Z,63.40
2022-10-11T22:40:32.830Z,61.97
2022-10-11T22:43:00.303Z,57.90
2022-10-11T22:45:27.658Z,55.42
2022-10-11T22:47:54.964Z,63.28
2022-10-11T22:50:22.522Z,66.55
2022-10-11T22:52:49.787Z,62.47
2022-10-11T22:55:20.161Z,68.85
2022-10-11T22:57:47.916Z,81.47
2022-10-11T23:00:15.350Z,77.80
2022-10-11T23:02:42.586Z,86.65
2022-10-11T23:05:10.063Z,81.47
2022-10-11T23:07:37.688Z,71.40
2022-10-11T23:10:05.576Z,71.60
2022-10-11T23:12:33.038Z,63.60
2022-10-11T23:15:00.513Z,70.32
2022-10-11T23:17:27.865Z,78.43
2022-10-11T23:19:57.682Z,62.85
2022-10-11T23:22:24.947Z,59.08
2022-10-11T23:24:52.258Z,62.00
2022-10-11T23:27:19.712Z,55.28
2022-10-11T23:29:47.084Z,57.72
2022-10-11T23:32:14.394Z,66.57
2022-10-11T23:34:42.080Z,67.97
2022-10-11T23:37:09.447Z,61.05
2022-10-11T23:39:36.698Z,55.60
2022-10-11T23:42:04.258Z,56.42
2022-10-11T23:44:31.612Z,62.45
2022-10-11T23:46:59.078Z,68.10
2022-10-11T23:49:26.525Z,66.45
2022-10-11T23:51:53.880Z,72.05
2022-10-11T23:54:21.150Z,63.92
2022-10-11T23:56:48.653Z,63.55
2022-10-11T23:59:15.896Z,56.33
